Time;durP1;ratioP1;P1;durP2;ratioP2;P2;SDS_P1;SDS_P2;PMS_P1;PMS_P2;Temp;Humidity;BMP_temperature;BMP_pressure;BME280_temperature;BME280_humidity;BME280_pressure;Samples;Min_cycle;Max_cycle;Signal;HPM_P1;HPM_P2
2023/02/05 00:02:08;;;;;;;27.98;7.65;;;;;;;;;;4961894;29;20067;-78
2023/02/05 00:04:35;;;;;;;20.10;6.70;;;;;;;;;;4948434;28;20023;-77
2023/02/05 00:07:00;;;;;;;20.67;5.90;;;;;;;;;;4967582;29;20059;-77
2023/02/05 00:09:27;;;;;;;18.80;6.75;;;;;;;;;;4966916;28;20059;-77
2023/02/05 00:11:53;;;;;;;19.35;6.40;;;;;;;;;;4955725;29;20023;-77
2023/02/05 00:14:19;;;;;;;21.35;6.15;;;;;;;;;;4976627;28;20054;-76
2023/02/05 00:16:46;;;;;;;17.50;5.82;;;;;;;;;;4972088;28;20031;-77
2023/02/05 00:19:14;;;;;;;14.65;6.00;;;;;;;;;;4974315;29;20335;-76
2023/02/05 00:21:42;;;;;;;22.27;6.13;;;;;;;;;;4973388;28;20059;-77
2023/02/05 00:24:09;;;;;;;21.00;5.93;;;;;;;;;;4972112;29;20087;-76
2023/02/05 00:26:34;;;;;;;16.88;6.22;;;;;;;;;;4962598;28;20027;-76
2023/02/05 00:29:00;;;;;;;17.35;6.82;;;;;;;;;;4963931;28;20038;-77
2023/02/05 00:31:27;;;;;;;16.80;6.13;;;;;;;;;;4966690;28;20039;-77
2023/02/05 00:33:53;;;;;;;26.33;7.53;;;;;;;;;;4944924;29;20087;-78
2023/02/05 00:36:19;;;;;;;33.53;8.77;;;;;;;;;;4962315;29;20057;-77
2023/02/05 00:38:45;;;;;;;33.70;9.50;;;;;;;;;;4961553;28;20039;-78
2023/02/05 00:41:11;;;;;;;42.25;12.15;;;;;;;;;;4945553;29;20062;-78
2023/02/05 00:43:40;;;;;;;34.83;10.32;;;;;;;;;;4962101;28;20050;-79
2023/02/05 00:46:06;;;;;;;31.42;9.98;;;;;;;;;;4961362;29;20062;-79
2023/02/05 00:48:32;;;;;;;35.03;11.40;;;;;;;;;;4965854;28;20098;-79
2023/02/05 00:50:57;;;;;;;45.38;13.45;;;;;;;;;;4946845;29;20031;-78
2023/02/05 00:53:24;;;;;;;32.20;9.05;;;;;;;;;;4964976;28;20027;-78
2023/02/05 00:55:52;;;;;;;33.70;9.57;;;;;;;;;;4974653;28;20038;-76
2023/02/05 00:58:17;;;;;;;23.20;8.05;;;;;;;;;;4952334;28;20115;-79
2023/02/05 01:00:43;;;;;;;26.65;8.15;;;;;;;;;;4969348;28;20062;-78
2023/02/05 01:03:09;;;;;;;39.25;8.80;;;;;;;;;;4948403;29;20474;-79
2023/02/05 01:05:36;;;;;;;28.55;8.68;;;;;;;;;;4948913;28;20043;-79
2023/02/05 01:08:02;;;;;;;19.05;7.80;;;;;;;;;;4978839;28;20019;-78
2023/02/05 01:10:28;;;;;;;27.65;8.40;;;;;;;;;;4964944;29;20007;-78
2023/02/05 01:12:53;;;;;;;28.10;8.48;;;;;;;;;;4968806;29;20592;-78
2023/02/05 01:15:19;;;;;;;30.45;9.55;;;;;;;;;;4971160;28;20027;-79
2023/02/05 01:17:44;;;;;;;29.35;9.63;;;;;;;;;;4962923;28;20377;-78
2023/02/05 01:20:14;;;;;;;33.72;10.27;;;;;;;;;;4961018;28;20027;-79
2023/02/05 01:22:40;;;;;;;;;;;;;;;;;;4962823;28;20015;-78
2023/02/05 01:25:06;;;;;;;32.05;11.18;;;;;;;;;;4965233;28;20419;-79
2023/02/05 01:27:33;;;;;;;35.88;9.98;;;;;;;;;;4962413;29;20043;-79
2023/02/05 01:29:58;;;;;;;37.72;8.88;;;;;;;;;;4965831;28;20080;-78
2023/02/05 01:32:29;;;;;;;29.02;8.85;;;;;;;;;;4969329;28;20028;-78
2023/02/05 01:34:54;;;;;;;23.08;7.40;;;;;;;;;;4952221;29;20026;-78
2023/02/05 01:37:20;;;;;;;26.17;6.78;;;;;;;;;;4964831;28;20383;-78
2023/02/05 01:39:46;;;;;;;23.05;8.18;;;;;;;;;;4979681;28;20043;-79
2023/02/05 01:42:18;;;;;;;18.70;6.75;;;;;;;;;;4965996;29;20103;-78
2023/02/05 01:45:24;;;;;;;19.85;6.60;;;;;;;;;;4958632;28;20026;-78
2023/02/05 01:47:59;;;;;;;18.40;5.65;;;;;;;;;;4970057;29;20031;-77
2023/02/05 01:50:36;;;;;;;17.02;4.93;;;;;;;;;;4970136;29;20030;-77
2023/02/05 01:53:07;;;;;;;13.98;5.30;;;;;;;;;;4970655;28;20017;-77
2023/02/05 01:55:39;;;;;;;14.95;5.00;;;;;;;;;;4970752;28;20023;-78
2023/02/05 01:58:05;;;;;;;24.45;5.35;;;;;;;;;;4949942;29;20039;-79
2023/02/05 02:00:31;;;;;;;11.77;4.05;;;;;;;;;;4972555;28;20042;-78
2023/02/05 02:02:58;;;;;;;12.60;4.57;;;;;;;;;;4964521;28;20027;-77
2023/02/05 02:05:28;;;;;;;20.02;7.03;;;;;;;;;;4965149;28;20028;-78
2023/02/05 02:07:53;;;;;;;;;;;;;;;;;;4962231;28;20023;-79
2023/02/05 02:10:19;;;;;;;12.88;3.92;;;;;;;;;;4964177;28;19919;-79
2023/02/05 02:12:49;;;;;;;10.45;4.00;;;;;;;;;;4963103;28;20027;-78
2023/02/05 02:15:19;;;;;;;14.68;3.63;;;;;;;;;;4962046;28;20038;-78
2023/02/05 02:17:48;;;;;;;12.68;4.60;;;;;;;;;;4962552;28;20027;-79
2023/02/05 02:20:33;;;;;;;17.92;5.80;;;;;;;;;;4963917;29;20577;-78
2023/02/05 02:23:13;;;;;;;17.15;5.70;;;;;;;;;;4964873;28;20031;-79
2023/02/05 02:26:00;;;;;;;25.00;9.27;;;;;;;;;;4942125;28;20039;-77
2023/02/05 02:28:44;;;;;;;23.88;8.32;;;;;;;;;;4964418;29;20058;-79
2023/02/05 02:31:15;;;;;;;24.02;8.18;;;;;;;;;;4960309;29;20099;-79
2023/02/05 02:33:49;;;;;;;25.27;8.52;;;;;;;;;;4964660;28;20015;-80
2023/02/05 02:36:21;;;;;;;18.98;7.32;;;;;;;;;;4964917;28;20031;-79
2023/02/05 02:38:56;;;;;;;19.63;6.82;;;;;;;;;;4963932;29;20027;-78
2023/02/05 02:41:37;;;;;;;19.52;6.85;;;;;;;;;;4963975;29;20030;-78
2023/02/05 02:44:15;;;;;;;16.85;6.00;;;;;;;;;;4962224;29;20513;-78
2023/02/05 02:46:43;;;;;;;11.50;5.07;;;;;;;;;;4968327;28;20434;-78
2023/02/05 02:49:18;;;;;;;11.43;5.03;;;;;;;;;;4962632;28;20537;-78
2023/02/05 02:51:45;;;;;;;13.73;5.25;;;;;;;;;;4966430;28;20027;-79
2023/02/05 02:54:15;;;;;;;13.25;5.10;;;;;;;;;;4943701;29;20035;-78
2023/02/05 02:56:42;;;;;;;20.63;4.75;;;;;;;;;;4968040;28;20027;-78
2023/02/05 02:59:14;;;;;;;11.30;4.72;;;;;;;;;;4960868;29;20113;-78
2023/02/05 03:01:43;;;;;;;15.88;4.85;;;;;;;;;;4962554;28;20082;-78
2023/02/05 03:04:15;;;;;;;15.13;5.25;;;;;;;;;;4962441;28;20065;-79
2023/02/05 03:06:48;;;;;;;14.65;5.30;;;;;;;;;;4963274;28;20295;-79
2023/02/05 03:09:17;;;;;;;13.95;5.22;;;;;;;;;;4948603;29;20035;-79
2023/02/05 03:11:42;;;;;;;11.02;5.00;;;;;;;;;;4964207;29;20035;-78
2023/02/05 03:14:08;;;;;;;14.00;5.43;;;;;;;;;;4964893;28;20035;-77
2023/02/05 03:16:33;;;;;;;12.18;5.10;;;;;;;;;;4964182;28;20050;-79
2023/02/05 03:19:01;;;;;;;16.23;5.40;;;;;;;;;;4965283;29;20063;-79
2023/02/05 03:21:31;;;;;;;13.85;6.15;;;;;;;;;;4970558;28;20040;-77
2023/02/05 03:23:59;;;;;;;11.88;5.25;;;;;;;;;;4977559;28;20027;-79
2023/02/05 03:26:30;;;;;;;12.13;5.43;;;;;;;;;;4961949;29;20031;-78
2023/02/05 03:28:59;;;;;;;15.50;5.72;;;;;;;;;;4944831;29;20070;-77
2023/02/05 03:31:35;;;;;;;13.80;5.53;;;;;;;;;;4969693;28;20042;-78
2023/02/05 03:34:08;;;;;;;13.05;5.78;;;;;;;;;;4960128;28;20027;-79
2023/02/05 03:36:39;;;;;;;14.02;5.10;;;;;;;;;;4972016;28;20031;-78
2023/02/05 03:39:16;;;;;;;14.27;4.95;;;;;;;;;;4969903;28;20035;-78
2023/02/05 03:42:13;;;;;;;15.90;6.10;;;;;;;;;;4963277;29;20034;-78
2023/02/05 03:44:44;;;;;;;18.70;5.07;;;;;;;;;;4961608;29;20397;-79
2023/02/05 03:47:36;;;;;;;13.48;6.03;;;;;;;;;;4963807;28;20087;-78
2023/02/05 03:50:07;;;;;;;15.27;6.32;;;;;;;;;;4948918;29;20035;-78
2023/02/05 03:52:41;;;;;;;18.13;6.78;;;;;;;;;;4942339;29;20091;-77
2023/02/05 03:55:16;;;;;;;13.07;5.60;;;;;;;;;;4963016;28;20038;-77
2023/02/05 03:57:43;;;;;;;17.90;5.40;;;;;;;;;;4958477;29;20023;-77
2023/02/05 04:00:10;;;;;;;13.65;5.80;;;;;;;;;;4961723;28;20027;-77
2023/02/05 04:02:35;;;;;;;10.48;5.15;;;;;;;;;;4958597;28;20033;-77
2023/02/05 04:05:01;;;;;;;11.15;5.32;;;;;;;;;;4960501;29;20023;-79
2023/02/05 04:07:26;;;;;;;17.67;5.35;;;;;;;;;;4959947;28;20089;-78
2023/02/05 04:09:52;;;;;;;14.43;4.70;;;;;;;;;;4959134;28;20082;-79
2023/02/05 04:12:20;;;;;;;7.97;4.70;;;;;;;;;;4960502;28;20035;-78
2023/02/05 04:14:46;;;;;;;15.32;5.28;;;;;;;;;;4959297;28;20027;-78
2023/02/05 04:17:11;;;;;;;12.70;4.95;;;;;;;;;;4942919;29;20038;-77
2023/02/05 04:19:37;;;;;;;12.88;5.47;;;;;;;;;;4945041;29;20082;-79
2023/02/05 04:22:05;;;;;;;11.70;4.22;;;;;;;;;;4964406;28;20478;-78
2023/02/05 04:24:30;;;;;;;11.63;4.10;;;;;;;;;;4970217;28;20035;-79
2023/02/05 04:26:55;;;;;;;13.20;4.53;;;;;;;;;;4965782;28;20508;-78
2023/02/05 04:29:21;;;;;;;12.40;4.22;;;;;;;;;;4942695;29;20035;-79
2023/02/05 04:31:46;;;;;;;12.10;4.20;;;;;;;;;;4966082;28;20077;-79
2023/02/05 04:34:12;;;;;;;11.25;4.18;;;;;;;;;;4965690;28;20031;-78
2023/02/05 04:36:40;;;;;;;12.25;4.20;;;;;;;;;;4963810;28;20018;-79
2023/02/05 04:39:08;;;;;;;10.45;5.07;;;;;;;;;;4943297;29;20402;-79
2023/02/05 04:41:34;;;;;;;10.20;3.88;;;;;;;;;;4960331;28;20050;-79
2023/02/05 04:44:02;;;;;;;12.15;3.83;;;;;;;;;;4961953;29;20023;-79
2023/02/05 04:46:27;;;;;;;12.02;4.10;;;;;;;;;;4943939;29;20038;-79
2023/02/05 04:48:53;;;;;;;9.38;3.30;;;;;;;;;;4962284;29;20437;-79
2023/02/05 04:51:18;;;;;;;8.32;3.85;;;;;;;;;;4943622;29;20611;-79
2023/02/05 04:53:44;;;;;;;9.93;4.65;;;;;;;;;;4959556;29;20034;-79
2023/02/05 04:56:15;;;;;;;9.45;4.05;;;;;;;;;;4962132;29;20035;-79
2023/02/05 04:58:44;;;;;;;8.35;3.90;;;;;;;;;;4960269;29;20035;-79
2023/02/05 05:01:19;;;;;;;7.38;3.63;;;;;;;;;;4959998;29;20035;-78
2023/02/05 05:03:45;;;;;;;9.35;3.30;;;;;;;;;;4960566;28;20054;-79
2023/02/05 05:06:11;;;;;;;5.35;3.53;;;;;;;;;;4962520;28;20042;-78
2023/02/05 05:08:37;;;;;;;12.43;3.72;;;;;;;;;;4958462;28;20035;-78
2023/02/05 05:11:10;;;;;;;11.50;4.35;;;;;;;;;;4960967;29;20332;-78
2023/02/05 05:13:36;;;;;;;12.05;4.00;;;;;;;;;;4959518;28;20064;-78
2023/02/05 05:16:06;;;;;;;10.77;3.97;;;;;;;;;;4965468;28;20031;-78
2023/02/05 05:18:33;;;;;;;9.73;3.92;;;;;;;;;;4961824;28;20031;-78
2023/02/05 05:20:59;;;;;;;9.65;3.70;;;;;;;;;;4945768;29;20035;-79
2023/02/05 05:23:24;;;;;;;8.68;4.20;;;;;;;;;;4960085;28;20107;-79
2023/02/05 05:25:50;;;;;;;7.50;4.20;;;;;;;;;;4959673;29;20027;-78
2023/02/05 05:28:18;;;;;;;9.10;3.67;;;;;;;;;;4959170;28;20027;-79
2023/02/05 05:30:44;;;;;;;11.95;3.45;;;;;;;;;;4962639;28;20035;-77
2023/02/05 05:33:12;;;;;;;12.50;4.30;;;;;;;;;;4962514;28;20102;-78
2023/02/05 05:35:44;;;;;;;11.32;4.32;;;;;;;;;;4959047;29;20027;-78
2023/02/05 05:38:09;;;;;;;11.63;3.97;;;;;;;;;;4961600;28;20027;-79
2023/02/05 05:46:05;;;;;;;11.68;4.13;;;;;;;;;;4961751;29;20038;-79
2023/02/05 05:48:33;;;;;;;10.02;4.13;;;;;;;;;;4955141;29;20027;-78
2023/02/05 05:50:58;;;;;;;9.05;3.97;;;;;;;;;;4972082;28;20015;-79
2023/02/05 05:53:24;;;;;;;9.27;4.53;;;;;;;;;;4968010;28;20034;-78
2023/02/05 05:55:51;;;;;;;12.13;4.30;;;;;;;;;;4979686;28;20444;-78
2023/02/05 05:58:16;;;;;;;8.02;4.43;;;;;;;;;;4966468;28;20478;-77
2023/02/05 06:00:42;;;;;;;7.72;4.22;;;;;;;;;;4957896;28;20050;-78
2023/02/05 06:03:11;;;;;;;16.25;6.57;;;;;;;;;;4964034;28;20036;-77
2023/02/05 06:05:37;;;;;;;12.33;6.67;;;;;;;;;;4951383;29;20126;-78
2023/02/05 06:08:02;;;;;;;15.77;5.90;;;;;;;;;;4943145;29;20443;-78
2023/02/05 06:10:28;;;;;;;15.52;4.93;;;;;;;;;;4941463;28;20099;-78
2023/02/05 06:12:54;;;;;;;13.35;5.05;;;;;;;;;;4960935;29;20098;-79
2023/02/05 06:15:22;;;;;;;12.00;6.10;;;;;;;;;;4956593;29;20031;-77
2023/02/05 06:17:49;;;;;;;12.30;5.70;;;;;;;;;;4961951;28;20035;-77
2023/02/05 06:20:15;;;;;;;13.10;5.82;;;;;;;;;;4964382;28;20027;-78
2023/02/05 06:22:40;;;;;;;13.57;6.75;;;;;;;;;;4959747;29;20027;-78
2023/02/05 06:25:06;;;;;;;13.77;6.47;;;;;;;;;;4944387;29;20474;-78
2023/02/05 06:27:32;;;;;;;21.00;6.68;;;;;;;;;;4958697;28;20039;-78
2023/02/05 06:29:57;;;;;;;16.17;5.75;;;;;;;;;;4954703;29;20035;-77
2023/02/05 06:32:23;;;;;;;13.85;5.10;;;;;;;;;;4941076;29;20035;-77
2023/02/05 06:34:48;;;;;;;15.75;5.60;;;;;;;;;;4940922;28;20030;-78
2023/02/05 06:37:14;;;;;;;17.05;6.65;;;;;;;;;;4956213;28;20082;-77
2023/02/05 06:39:39;;;;;;;19.35;8.20;;;;;;;;;;4958216;29;20034;-78
2023/02/05 06:42:05;;;;;;;26.50;9.38;;;;;;;;;;4953318;28;20043;-80
2023/02/05 06:44:33;;;;;;;17.38;7.10;;;;;;;;;;4951451;28;20058;-78
2023/02/05 06:47:01;;;;;;;17.05;6.43;;;;;;;;;;4954964;29;20038;-78
2023/02/05 06:49:29;;;;;;;13.65;6.70;;;;;;;;;;4950977;28;20031;-78
2023/02/05 06:51:58;;;;;;;14.88;6.82;;;;;;;;;;4954650;29;20063;-78
2023/02/05 06:54:24;;;;;;;12.93;7.38;;;;;;;;;;4958222;28;20027;-78
2023/02/05 06:56:49;;;;;;;12.95;6.65;;;;;;;;;;4960402;28;20180;-77
2023/02/05 06:59:15;;;;;;;14.98;6.20;;;;;;;;;;4958766;29;20038;-79
2023/02/05 07:01:40;;;;;;;14.32;6.15;;;;;;;;;;4956240;29;20474;-78
2023/02/05 07:04:05;;;;;;;12.10;5.45;;;;;;;;;;4938276;29;20109;-77
2023/02/05 07:06:31;;;;;;;14.02;6.03;;;;;;;;;;4954350;28;20114;-78
2023/02/05 07:08:58;;;;;;;15.15;5.88;;;;;;;;;;4936833;29;20416;-77
2023/02/05 07:11:26;;;;;;;17.20;5.95;;;;;;;;;;4954676;28;20501;-77
2023/02/05 07:13:51;;;;;;;28.38;13.43;;;;;;;;;;4957646;28;20398;-78
2023/02/05 07:16:19;;;;;;;25.13;12.73;;;;;;;;;;4958954;29;20045;-78
2023/02/05 07:18:45;;;;;;;29.13;11.23;;;;;;;;;;4958353;29;20058;-77
2023/02/05 07:21:17;;;;;;;27.92;14.27;;;;;;;;;;4957682;28;20046;-81
2023/02/05 07:23:42;;;;;;;37.55;16.27;;;;;;;;;;4955972;28;20061;-76
2023/02/05 07:26:12;;;;;;;44.10;17.42;;;;;;;;;;4959196;29;20031;-78
2023/02/05 07:28:38;;;;;;;;;;;;;;;;;;4961266;28;20027;-78
2023/02/05 07:31:05;;;;;;;35.70;15.23;;;;;;;;;;4942403;29;20289;-77
2023/02/05 07:33:31;;;;;;;31.58;15.18;;;;;;;;;;4960230;29;20300;-79
2023/02/05 07:35:57;;;;;;;31.23;13.88;;;;;;;;;;4954056;29;20031;-79
2023/02/05 07:38:25;;;;;;;32.80;14.57;;;;;;;;;;4958079;29;20127;-78
2023/02/05 07:40:51;;;;;;;28.90;14.70;;;;;;;;;;4960423;28;20062;-80
2023/02/05 07:43:16;;;;;;;32.53;14.35;;;;;;;;;;4963126;28;20031;-78
2023/02/05 07:45:41;;;;;;;23.83;12.20;;;;;;;;;;4958271;28;20031;-78
2023/02/05 07:48:07;;;;;;;34.28;15.25;;;;;;;;;;4960832;29;20035;-79
2023/02/05 07:50:32;;;;;;;25.23;12.40;;;;;;;;;;4942427;29;20116;-78
2023/02/05 07:52:58;;;;;;;27.27;11.95;;;;;;;;;;4960173;28;20042;-77
2023/02/05 07:55:23;;;;;;;22.20;11.70;;;;;;;;;;4958318;29;20095;-79
2023/02/05 07:57:48;;;;;;;24.90;11.25;;;;;;;;;;4963470;28;20050;-77
2023/02/05 08:00:14;;;;;;;27.10;11.63;;;;;;;;;;4956333;29;20091;-78
2023/02/05 08:02:39;;;;;;;22.98;11.52;;;;;;;;;;4942420;29;20038;-79
2023/02/05 08:05:05;;;;;;;28.92;12.75;;;;;;;;;;4942682;29;20478;-79
2023/02/05 08:07:31;;;;;;;22.67;12.00;;;;;;;;;;4962309;28;20051;-77
2023/02/05 08:09:56;;;;;;;32.85;14.65;;;;;;;;;;4960992;28;20031;-77
2023/02/05 08:12:22;;;;;;;33.20;15.43;;;;;;;;;;4955724;29;20027;-79
2023/02/05 08:14:47;;;;;;;25.42;12.30;;;;;;;;;;4943491;29;20046;-78
2023/02/05 08:17:13;;;;;;;27.20;12.85;;;;;;;;;;4950464;28;20055;-76
2023/02/05 08:19:39;;;;;;;25.85;12.35;;;;;;;;;;4956833;28;20032;-80
2023/02/05 08:22:04;;;;;;;23.38;11.43;;;;;;;;;;4956469;28;20030;-80
2023/02/05 08:24:30;;;;;;;23.58;11.05;;;;;;;;;;4964847;28;20027;-79
2023/02/05 08:26:56;;;;;;;19.17;8.57;;;;;;;;;;4946568;28;20023;-78
2023/02/05 08:29:21;;;;;;;20.67;9.48;;;;;;;;;;4943860;29;20031;-77
2023/02/05 08:31:47;;;;;;;23.67;9.45;;;;;;;;;;4956647;29;20386;-79
2023/02/05 08:34:15;;;;;;;15.95;8.75;;;;;;;;;;4952521;29;20028;-79
2023/02/05 08:36:40;;;;;;;19.50;10.20;;;;;;;;;;4955661;29;20494;-78
2023/02/05 08:39:08;;;;;;;25.10;13.25;;;;;;;;;;4925461;29;20035;-78
2023/02/05 08:41:35;;;;;;;27.88;12.52;;;;;;;;;;4955747;28;20030;-78
2023/02/05 08:44:01;;;;;;;25.80;11.13;;;;;;;;;;4957607;28;20031;-79
2023/02/05 08:46:26;;;;;;;23.05;11.10;;;;;;;;;;4961215;28;20027;-79
2023/02/05 08:48:52;;;;;;;27.33;13.05;;;;;;;;;;4942003;28;20026;-80
2023/02/05 08:51:21;;;;;;;33.00;13.80;;;;;;;;;;4959347;28;20035;-78
2023/02/05 08:53:49;;;;;;;46.30;17.35;;;;;;;;;;4956957;29;20102;-79
2023/02/05 08:56:15;;;;;;;43.85;18.67;;;;;;;;;;4941546;29;20031;-79
2023/02/05 08:58:44;;;;;;;49.92;22.55;;;;;;;;;;4958956;28;20152;-79
2023/02/05 09:01:12;;;;;;;64.65;27.73;;;;;;;;;;4962241;28;20027;-79
2023/02/05 09:03:38;;;;;;;28.38;9.98;;;;;;;;;;4938478;28;20023;-79
2023/02/05 09:06:06;;;;;;;22.95;10.70;;;;;;;;;;4954382;28;20034;-78
2023/02/05 09:08:36;;;;;;;28.15;11.07;;;;;;;;;;4942243;29;20030;-79
2023/02/05 09:11:07;;;;;;;28.10;11.05;;;;;;;;;;4940929;29;20027;-79
2023/02/05 09:13:33;;;;;;;23.00;9.73;;;;;;;;;;4944572;29;20505;-79
2023/02/05 09:15:59;;;;;;;14.35;5.90;;;;;;;;;;4955749;29;20038;-79
2023/02/05 09:18:26;;;;;;;11.75;5.47;;;;;;;;;;4939163;28;20312;-79
2023/02/05 09:20:53;;;;;;;15.02;4.82;;;;;;;;;;4941232;29;20422;-78
2023/02/05 09:23:19;;;;;;;15.60;4.15;;;;;;;;;;4960812;28;20410;-78
2023/02/05 09:25:46;;;;;;;11.85;3.92;;;;;;;;;;4937944;28;20125;-79
2023/02/05 09:28:13;;;;;;;11.70;5.18;;;;;;;;;;4941406;29;20035;-78
2023/02/05 09:30:41;;;;;;;14.93;6.38;;;;;;;;;;4957096;29;20043;-79
2023/02/05 09:33:07;;;;;;;18.13;5.65;;;;;;;;;;4933682;29;20016;-79
2023/02/05 09:35:34;;;;;;;13.20;5.95;;;;;;;;;;4928543;29;20118;-79
2023/02/05 09:38:02;;;;;;;22.77;8.27;;;;;;;;;;4953363;28;20035;-77
2023/02/05 09:40:41;;;;;;;18.35;7.50;;;;;;;;;;4955722;28;20418;-79
2023/02/05 09:43:39;;;;;;;13.32;6.57;;;;;;;;;;4954072;29;20032;-79
2023/02/05 09:46:18;;;;;;;14.50;4.93;;;;;;;;;;4942946;28;20070;-78
2023/02/05 09:48:55;;;;;;;12.48;5.13;;;;;;;;;;4935709;29;20035;-79
2023/02/05 09:51:41;;;;;;;11.90;4.78;;;;;;;;;;4951672;29;20039;-79
2023/02/05 09:54:16;;;;;;;15.20;5.22;;;;;;;;;;4956369;28;20512;-77
2023/02/05 09:56:44;;;;;;;18.60;5.75;;;;;;;;;;4954197;28;20034;-76
2023/02/05 09:59:16;;;;;;;15.93;5.07;;;;;;;;;;4957670;28;20034;-77
2023/02/05 10:01:59;;;;;;;15.80;5.63;;;;;;;;;;4955896;28;20394;-79
2023/02/05 10:04:27;;;;;;;16.95;5.03;;;;;;;;;;4936459;29;20055;-79
2023/02/05 10:07:48;;;;;;;14.18;4.82;;;;;;;;;;4955879;28;20498;-77
2023/02/05 10:10:38;;;;;;;14.88;5.65;;;;;;;;;;4951648;28;20051;-78
2023/02/05 10:13:23;;;;;;;16.05;6.03;;;;;;;;;;4936928;29;20016;-78
2023/02/05 10:16:13;;;;;;;16.35;6.25;;;;;;;;;;4937520;29;20034;-78
2023/02/05 10:18:42;;;;;;;9.85;5.03;;;;;;;;;;4950886;29;20113;-77
2023/02/05 10:21:30;;;;;;;19.13;5.60;;;;;;;;;;4950814;29;20490;-77
2023/02/05 10:24:35;;;;;;;19.70;8.07;;;;;;;;;;4934149;29;20518;-78
2023/02/05 10:27:25;;;;;;;22.25;8.40;;;;;;;;;;4955264;28;20122;-78
2023/02/05 10:30:01;;;;;;;16.08;6.53;;;;;;;;;;4952516;28;20117;-78
2023/02/05 10:32:45;;;;;;;24.45;7.90;;;;;;;;;;4935275;28;20079;-79
2023/02/05 10:35:32;;;;;;;25.90;8.93;;;;;;;;;;4954148;29;20029;-77
2023/02/05 10:37:57;;;;;;;17.35;7.60;;;;;;;;;;4951525;28;20134;-78
2023/02/05 10:40:28;;;;;;;18.60;7.18;;;;;;;;;;4957041;29;20063;-79
2023/02/05 10:43:21;;;;;;;19.63;9.45;;;;;;;;;;4957065;29;20027;-79
2023/02/05 10:45:47;;;;;;;13.05;7.10;;;;;;;;;;4966280;28;20032;-80
2023/02/05 10:48:31;;;;;;;20.50;6.80;;;;;;;;;;4941611;28;20046;-80
2023/02/05 10:51:27;;;;;;;15.10;7.47;;;;;;;;;;4955640;29;20030;-78
2023/02/05 10:53:53;;;;;;;18.60;8.75;;;;;;;;;;4955182;29;20026;-78
2023/02/05 10:56:21;;;;;;;16.63;7.50;;;;;;;;;;4959442;28;20024;-79
2023/02/05 10:58:51;;;;;;;18.83;8.75;;;;;;;;;;4958629;29;20138;-80
2023/02/05 11:01:23;;;;;;;19.15;7.82;;;;;;;;;;4954664;28;20031;-78
2023/02/05 11:03:54;;;;;;;20.92;7.20;;;;;;;;;;4950074;28;20078;-77
2023/02/05 11:06:24;;;;;;;16.88;7.47;;;;;;;;;;4949943;29;20035;-78
2023/02/05 11:08:49;;;;;;;20.10;5.85;;;;;;;;;;4934471;29;20030;-78
2023/02/05 11:11:42;;;;;;;22.38;7.82;;;;;;;;;;4940259;29;20035;-78
2023/02/05 11:14:30;;;;;;;17.75;7.32;;;;;;;;;;4936473;29;20042;-79
2023/02/05 11:16:55;;;;;;;15.75;6.13;;;;;;;;;;4962444;28;20027;-78
2023/02/05 11:19:25;;;;;;;14.82;6.15;;;;;;;;;;4940891;29;20098;-76
2023/02/05 11:21:58;;;;;;;18.30;6.93;;;;;;;;;;4958531;29;20027;-80
2023/02/05 11:24:33;;;;;;;13.35;6.15;;;;;;;;;;4958231;28;20094;-78
2023/02/05 11:27:11;;;;;;;8.20;5.07;;;;;;;;;;4958569;29;20062;-79
2023/02/05 11:29:39;;;;;;;16.60;5.93;;;;;;;;;;4957999;29;20438;-77
2023/02/05 11:32:17;;;;;;;16.80;5.90;;;;;;;;;;4941172;29;20023;-77
2023/02/05 11:34:43;;;;;;;18.08;6.82;;;;;;;;;;4941030;29;20020;-79
2023/02/05 11:37:16;;;;;;;20.40;6.32;;;;;;;;;;4937894;29;20031;-80
2023/02/05 11:39:44;;;;;;;13.82;5.85;;;;;;;;;;4955573;29;20034;-79
2023/02/05 11:42:20;;;;;;;16.25;7.00;;;;;;;;;;4955887;28;20027;-79
2023/02/05 11:44:52;;;;;;;22.70;7.13;;;;;;;;;;4942156;29;20062;-78
2023/02/05 11:47:27;;;;;;;20.73;5.97;;;;;;;;;;4947458;28;20035;-78
2023/02/05 11:49:54;;;;;;;16.67;5.25;;;;;;;;;;4956749;28;20482;-79
2023/02/05 11:52:29;;;;;;;13.48;5.70;;;;;;;;;;4955657;29;20035;-79
2023/02/05 11:54:55;;;;;;;19.85;6.57;;;;;;;;;;4937704;29;20059;-78
2023/02/05 11:57:20;;;;;;;15.55;5.65;;;;;;;;;;4956219;29;20039;-79
2023/02/05 12:00:16;;;;;;;21.77;6.20;;;;;;;;;;4932865;29;20027;-78
2023/02/05 12:02:44;;;;;;;20.02;6.80;;;;;;;;;;4954317;28;20031;-78
2023/02/05 12:05:20;;;;;;;12.65;5.65;;;;;;;;;;4952310;29;20067;-77
2023/02/05 12:08:10;;;;;;;23.23;6.65;;;;;;;;;;4959476;28;20025;-79
2023/02/05 12:11:12;;;;;;;13.90;5.95;;;;;;;;;;4937255;28;20071;-77
2023/02/05 12:14:12;;;;;;;12.93;5.25;;;;;;;;;;4939449;29;20038;-77
2023/02/05 12:17:20;;;;;;;18.25;6.32;;;;;;;;;;4946371;29;20027;-77
2023/02/05 12:19:59;;;;;;;11.90;5.68;;;;;;;;;;4944773;29;20039;-79
2023/02/05 12:22:43;;;;;;;15.25;6.80;;;;;;;;;;4958517;29;20039;-78
2023/02/05 12:25:19;;;;;;;13.45;5.68;;;;;;;;;;4927144;29;20027;-79
2023/02/05 12:28:11;;;;;;;13.95;6.13;;;;;;;;;;4952488;28;20023;-80
2023/02/05 12:30:50;;;;;;;17.10;6.28;;;;;;;;;;4939705;29;20039;-77
2023/02/05 12:33:27;;;;;;;16.77;6.35;;;;;;;;;;4957049;29;20114;-80
2023/02/05 12:36:25;;;;;;;18.88;6.30;;;;;;;;;;4956389;29;20046;-77
2023/02/05 12:39:18;;;;;;;13.45;6.90;;;;;;;;;;4931212;29;20031;-81
2023/02/05 12:41:57;;;;;;;16.48;6.40;;;;;;;;;;4959064;28;20218;-76
2023/02/05 12:44:43;;;;;;;;;;;;;;;;;;4937401;29;20522;-77
2023/02/05 12:47:26;;;;;;;14.00;5.63;;;;;;;;;;4959891;28;19923;-79
2023/02/05 12:50:34;;;;;;;11.88;4.90;;;;;;;;;;4956964;28;20025;-79
2023/02/05 12:53:12;;;;;;;14.32;5.13;;;;;;;;;;4941984;28;20027;-78
2023/02/05 12:55:40;;;;;;;10.00;5.30;;;;;;;;;;4962673;28;20433;-77
2023/02/05 12:58:09;;;;;;;15.60;5.63;;;;;;;;;;4937502;29;20086;-78
2023/02/05 13:00:49;;;;;;;11.50;5.72;;;;;;;;;;4958273;28;20035;-79
2023/02/05 13:03:17;;;;;;;9.85;4.97;;;;;;;;;;4950537;28;20043;-78
2023/02/05 13:05:55;;;;;;;12.25;5.43;;;;;;;;;;4954376;28;20023;-77
2023/02/05 13:08:41;;;;;;;13.02;5.70;;;;;;;;;;4953940;29;20062;-76
2023/02/05 13:11:22;;;;;;;11.80;6.05;;;;;;;;;;4951498;29;20114;-77
2023/02/05 13:13:53;;;;;;;17.50;6.13;;;;;;;;;;4959827;28;20039;-79
2023/02/05 13:16:25;;;;;;;19.33;7.45;;;;;;;;;;4957011;28;20027;-78
2023/02/05 13:19:02;;;;;;;17.05;7.10;;;;;;;;;;4955691;29;20027;-77
2023/02/05 13:29:58;;;;;;;15.15;6.43;;;;;;;;;;4916882;29;20501;-78
2023/02/05 13:32:31;;;;;;;10.25;5.97;;;;;;;;;;4937557;29;20475;-79
2023/02/05 13:34:58;;;;;;;14.15;7.82;;;;;;;;;;4938230;29;20113;-81
2023/02/05 13:37:47;;;;;;;13.88;5.88;;;;;;;;;;4938160;29;20035;-77
2023/02/05 13:40:16;;;;;;;10.52;5.50;;;;;;;;;;4955771;29;20023;-81
2023/02/05 13:43:29;;;;;;;10.93;5.90;;;;;;;;;;4955184;29;20019;-78
2023/02/05 13:46:32;;;;;;;10.85;5.68;;;;;;;;;;4938052;29;20046;-79
2023/02/05 13:49:13;;;;;;;13.30;5.70;;;;;;;;;;4954786;29;20351;-79
2023/02/05 13:51:57;;;;;;;10.73;5.85;;;;;;;;;;4957793;28;20102;-80
2023/02/05 13:54:37;;;;;;;9.30;5.93;;;;;;;;;;4936721;28;20016;-78
2023/02/05 13:57:18;;;;;;;17.02;8.90;;;;;;;;;;4963828;28;20389;-80
2023/02/05 13:59:51;;;;;;;12.82;6.53;;;;;;;;;;4954822;29;20031;-80
2023/02/05 14:02:20;;;;;;;11.48;6.25;;;;;;;;;;4941505;28;20038;-80
2023/02/05 14:04:53;;;;;;;10.32;5.80;;;;;;;;;;4940648;29;20106;-79
2023/02/05 14:07:22;;;;;;;11.95;6.22;;;;;;;;;;4951819;29;20505;-76
2023/02/05 14:09:55;;;;;;;12.35;7.03;;;;;;;;;;4954510;28;20429;-79
2023/02/05 14:12:27;;;;;;;16.50;8.10;;;;;;;;;;4954948;28;20026;-79
2023/02/05 14:15:14;;;;;;;13.18;7.43;;;;;;;;;;4955985;29;20020;-77
2023/02/05 14:17:39;;;;;;;12.00;6.72;;;;;;;;;;4940720;28;20401;-78
2023/02/05 14:20:25;;;;;;;12.38;6.85;;;;;;;;;;4941296;29;20027;-76
2023/02/05 14:22:56;;;;;;;13.75;7.97;;;;;;;;;;4955142;28;20035;-80
2023/02/05 14:25:34;;;;;;;12.35;8.20;;;;;;;;;;4958335;28;20090;-78
2023/02/05 14:28:20;;;;;;;25.58;11.90;;;;;;;;;;4961234;28;20022;-78
2023/02/05 14:30:58;;;;;;;12.23;8.65;;;;;;;;;;4938384;29;20375;-77
2023/02/05 14:33:43;;;;;;;10.93;7.45;;;;;;;;;;4942935;29;20066;-80
2023/02/05 14:36:15;;;;;;;17.27;8.90;;;;;;;;;;4957210;29;20027;-80
2023/02/05 14:38:44;;;;;;;18.92;11.35;;;;;;;;;;4957826;28;20383;-79
2023/02/05 14:41:18;;;;;;;13.70;9.00;;;;;;;;;;4959749;28;20074;-78
2023/02/05 14:43:55;;;;;;;16.65;9.77;;;;;;;;;;4967739;28;20023;-78
2023/02/05 14:46:30;;;;;;;16.13;9.18;;;;;;;;;;4957657;28;20470;-78
2023/02/05 14:48:59;;;;;;;14.55;9.57;;;;;;;;;;4959415;28;20026;-77
2023/02/05 14:51:50;;;;;;;19.03;10.20;;;;;;;;;;4955211;29;20027;-78
2023/02/05 14:54:20;;;;;;;21.08;12.30;;;;;;;;;;4954552;29;20233;-78
2023/02/05 14:56:50;;;;;;;;;;;;;;;;;;4954943;28;20031;-80
2023/02/05 14:59:28;;;;;;;;;;;;;;;;;;4938526;29;19915;-78
2023/02/05 15:01:58;;;;;;;16.40;9.45;;;;;;;;;;4957467;28;20018;-79
2023/02/05 15:04:33;;;;;;;22.58;13.25;;;;;;;;;;4954190;28;20038;-78
2023/02/05 15:07:06;;;;;;;34.70;18.58;;;;;;;;;;4951638;28;20482;-79
2023/02/05 15:10:00;;;;;;;26.70;17.10;;;;;;;;;;4954539;29;20062;-81
2023/02/05 15:13:07;;;;;;;20.75;14.02;;;;;;;;;;4935285;29;20173;-81